sensor_id;sensor_type;location;lat;lon;timestamp;P1;durP1;ratioP1;P2;durP2;ratioP2
80637;SDS011;69991;51.760;19.528;2023-10-08T00:01:45;4.60;;;1.30;;
80637;SDS011;69991;51.760;19.528;2023-10-08T00:04:37;5.30;;;1.40;;
80637;SDS011;69991;51.760;19.528;2023-10-08T00:07:13;5.20;;;1.80;;
80637;SDS011;69991;51.760;19.528;2023-10-08T00:10:06;4.20;;;1.20;;
80637;SDS011;69991;51.760;19.528;2023-10-08T00:12:43;4.60;;;1.30;;
80637;SDS011;69991;51.760;19.528;2023-10-08T00:18:41;5.20;;;1.40;;
80637;SDS011;69991;51.760;19.528;2023-10-08T00:21:39;4.30;;;1.40;;
80637;SDS011;69991;51.760;19.528;2023-10-08T00:24:36;4.80;;;1.10;;
80637;SDS011;69991;51.760;19.528;2023-10-08T00:27:32;4.40;;;1.10;;
80637;SDS011;69991;51.760;19.528;2023-10-08T00:30:28;3.80;;;1.20;;
80637;SDS011;69991;51.760;19.528;2023-10-08T00:33:27;5.30;;;1.30;;
80637;SDS011;69991;51.760;19.528;2023-10-08T00:36:24;4.70;;;1.60;;
80637;SDS011;69991;51.760;19.528;2023-10-08T00:39:20;5.30;;;1.20;;
80637;SDS011;69991;51.760;19.528;2023-10-08T00:42:22;4.60;;;1.10;;
80637;SDS011;69991;51.760;19.528;2023-10-08T00:44:58;3.60;;;1.20;;
80637;SDS011;69991;51.760;19.528;2023-10-08T00:47:46;4.60;;;1.30;;
80637;SDS011;69991;51.760;19.528;2023-10-08T00:50:22;5.60;;;1.30;;
80637;SDS011;69991;51.760;19.528;2023-10-08T00:53:25;8.80;;;1.60;;
80637;SDS011;69991;51.760;19.528;2023-10-08T00:56:01;5.10;;;1.80;;
80637;SDS011;69991;51.760;19.528;2023-10-08T00:59:00;10.60;;;1.70;;
80637;SDS011;69991;51.760;19.528;2023-10-08T01:01:37;3.00;;;1.40;;
80637;SDS011;69991;51.760;19.528;2023-10-08T01:04:33;6.20;;;1.50;;
80637;SDS011;69991;51.760;19.528;2023-10-08T01:07:29;7.20;;;1.90;;
80637;SDS011;69991;51.760;19.528;2023-10-08T01:10:25;5.40;;;1.60;;
80637;SDS011;69991;51.760;19.528;2023-10-08T01:13:21;6.40;;;1.80;;
80637;SDS011;69991;51.760;19.528;2023-10-08T01:15:58;7.70;;;1.90;;
80637;SDS011;69991;51.760;19.528;2023-10-08T01:18:46;5.30;;;1.60;;
80637;SDS011;69991;51.760;19.528;2023-10-08T01:21:30;5.60;;;1.50;;
80637;SDS011;69991;51.760;19.528;2023-10-08T01:24:21;8.10;;;2.30;;
80637;SDS011;69991;51.760;19.528;2023-10-08T01:27:18;7.00;;;2.00;;
80637;SDS011;69991;51.760;19.528;2023-10-08T01:30:16;8.30;;;2.60;;
80637;SDS011;69991;51.760;19.528;2023-10-08T01:33:13;6.80;;;2.10;;
80637;SDS011;69991;51.760;19.528;2023-10-08T01:36:16;7.40;;;2.20;;
80637;SDS011;69991;51.760;19.528;2023-10-08T01:39:13;6.50;;;2.40;;
80637;SDS011;69991;51.760;19.528;2023-10-08T01:42:09;5.40;;;2.00;;
80637;SDS011;69991;51.760;19.528;2023-10-08T01:45:05;7.10;;;2.40;;
80637;SDS011;69991;51.760;19.528;2023-10-08T01:47:45;7.50;;;2.70;;
80637;SDS011;69991;51.760;19.528;2023-10-08T01:50:37;11.80;;;3.80;;
80637;SDS011;69991;51.760;19.528;2023-10-08T01:53:14;7.40;;;3.50;;
80637;SDS011;69991;51.760;19.528;2023-10-08T01:56:02;8.40;;;3.20;;
80637;SDS011;69991;51.760;19.528;2023-10-08T01:58:39;13.40;;;4.70;;
80637;SDS011;69991;51.760;19.528;2023-10-08T02:01:28;7.50;;;3.70;;
80637;SDS011;69991;51.760;19.528;2023-10-08T02:04:05;11.20;;;4.30;;
80637;SDS011;69991;51.760;19.528;2023-10-08T02:06:55;11.10;;;4.20;;
80637;SDS011;69991;51.760;19.528;2023-10-08T02:09:31;10.60;;;3.90;;
80637;SDS011;69991;51.760;19.528;2023-10-08T02:12:19;8.90;;;3.50;;
80637;SDS011;69991;51.760;19.528;2023-10-08T02:14:55;10.00;;;3.70;;
80637;SDS011;69991;51.760;19.528;2023-10-08T02:17:44;5.90;;;2.50;;
80637;SDS011;69991;51.760;19.528;2023-10-08T02:20:20;6.60;;;2.60;;
80637;SDS011;69991;51.760;19.528;2023-10-08T02:23:09;7.60;;;3.40;;
80637;SDS011;69991;51.760;19.528;2023-10-08T02:25:48;9.50;;;4.10;;
80637;SDS011;69991;51.760;19.528;2023-10-08T02:28:37;7.00;;;2.60;;
80637;SDS011;69991;51.760;19.528;2023-10-08T02:31:14;8.50;;;4.00;;
80637;SDS011;69991;51.760;19.528;2023-10-08T02:34:02;6.80;;;3.10;;
80637;SDS011;69991;51.760;19.528;2023-10-08T02:36:38;11.20;;;3.60;;
80637;SDS011;69991;51.760;19.528;2023-10-08T02:42:30;12.80;;;3.60;;
80637;SDS011;69991;51.760;19.528;2023-10-08T02:45:26;10.00;;;3.40;;
80637;SDS011;69991;51.760;19.528;2023-10-08T02:48:27;11.60;;;4.30;;
80637;SDS011;69991;51.760;19.528;2023-10-08T02:51:24;8.80;;;3.90;;
80637;SDS011;69991;51.760;19.528;2023-10-08T02:54:01;10.40;;;3.90;;
80637;SDS011;69991;51.760;19.528;2023-10-08T02:56:52;9.50;;;3.60;;
80637;SDS011;69991;51.760;19.528;2023-10-08T02:59:42;7.90;;;3.30;;
80637;SDS011;69991;51.760;19.528;2023-10-08T03:02:25;10.10;;;4.10;;
80637;SDS011;69991;51.760;19.528;2023-10-08T03:05:08;7.50;;;4.10;;
80637;SDS011;69991;51.760;19.528;2023-10-08T03:07:52;7.90;;;3.60;;
80637;SDS011;69991;51.760;19.528;2023-10-08T03:10:34;7.50;;;3.00;;
80637;SDS011;69991;51.760;19.528;2023-10-08T03:13:10;10.10;;;4.50;;
80637;SDS011;69991;51.760;19.528;2023-10-08T03:16:01;10.30;;;4.20;;
80637;SDS011;69991;51.760;19.528;2023-10-08T03:18:37;9.00;;;4.10;;
80637;SDS011;69991;51.760;19.528;2023-10-08T03:21:32;12.60;;;4.00;;
80637;SDS011;69991;51.760;19.528;2023-10-08T03:24:28;10.50;;;4.20;;
80637;SDS011;69991;51.760;19.528;2023-10-08T03:27:16;9.20;;;4.90;;
80637;SDS011;69991;51.760;19.528;2023-10-08T03:29:55;9.30;;;3.90;;
80637;SDS011;69991;51.760;19.528;2023-10-08T03:32:44;10.60;;;4.00;;
80637;SDS011;69991;51.760;19.528;2023-10-08T03:35:20;9.70;;;4.00;;
80637;SDS011;69991;51.760;19.528;2023-10-08T03:38:10;5.80;;;2.90;;
80637;SDS011;69991;51.760;19.528;2023-10-08T03:41:03;8.10;;;3.90;;
80637;SDS011;69991;51.760;19.528;2023-10-08T03:44:04;6.80;;;3.40;;
80637;SDS011;69991;51.760;19.528;2023-10-08T03:47:04;7.80;;;3.60;;
80637;SDS011;69991;51.760;19.528;2023-10-08T03:50:00;6.90;;;3.40;;
80637;SDS011;69991;51.760;19.528;2023-10-08T03:52:57;7.20;;;3.30;;
80637;SDS011;69991;51.760;19.528;2023-10-08T03:55:53;7.50;;;2.90;;
80637;SDS011;69991;51.760;19.528;2023-10-08T03:58:53;6.40;;;2.60;;
80637;SDS011;69991;51.760;19.528;2023-10-08T04:01:30;7.60;;;3.10;;
80637;SDS011;69991;51.760;19.528;2023-10-08T04:04:21;7.30;;;2.90;;
80637;SDS011;69991;51.760;19.528;2023-10-08T04:07:06;7.20;;;3.30;;
80637;SDS011;69991;51.760;19.528;2023-10-08T04:10:08;6.70;;;3.10;;
80637;SDS011;69991;51.760;19.528;2023-10-08T04:12:51;7.50;;;2.80;;
80637;SDS011;69991;51.760;19.528;2023-10-08T04:15:32;7.20;;;3.20;;
80637;SDS011;69991;51.760;19.528;2023-10-08T04:18:15;5.90;;;2.60;;
80637;SDS011;69991;51.760;19.528;2023-10-08T04:20:56;7.90;;;3.00;;
80637;SDS011;69991;51.760;19.528;2023-10-08T04:23:47;7.60;;;2.90;;
80637;SDS011;69991;51.760;19.528;2023-10-08T04:26:39;5.90;;;2.50;;
80637;SDS011;69991;51.760;19.528;2023-10-08T04:29:36;6.50;;;2.70;;
80637;SDS011;69991;51.760;19.528;2023-10-08T04:32:38;6.40;;;2.90;;
80637;SDS011;69991;51.760;19.528;2023-10-08T04:35:34;7.60;;;3.10;;
80637;SDS011;69991;51.760;19.528;2023-10-08T04:38:50;6.50;;;2.60;;
80637;SDS011;69991;51.760;19.528;2023-10-08T04:41:30;7.50;;;3.40;;
80637;SDS011;69991;51.760;19.528;2023-10-08T04:44:24;7.90;;;3.20;;
80637;SDS011;69991;51.760;19.528;2023-10-08T04:47:01;9.70;;;3.50;;
80637;SDS011;69991;51.760;19.528;2023-10-08T04:49:50;7.20;;;3.30;;
80637;SDS011;69991;51.760;19.528;2023-10-08T04:52:28;7.70;;;3.40;;
80637;SDS011;69991;51.760;19.528;2023-10-08T04:55:27;6.90;;;3.00;;
80637;SDS011;69991;51.760;19.528;2023-10-08T04:58:06;9.40;;;3.10;;
80637;SDS011;69991;51.760;19.528;2023-10-08T05:00:54;7.40;;;3.00;;
80637;SDS011;69991;51.760;19.528;2023-10-08T05:03:54;7.80;;;2.90;;
80637;SDS011;69991;51.760;19.528;2023-10-08T05:06:41;6.40;;;2.50;;
80637;SDS011;69991;51.760;19.528;2023-10-08T05:09:22;8.80;;;3.00;;
80637;SDS011;69991;51.760;19.528;2023-10-08T05:12:04;8.60;;;3.30;;
80637;SDS011;69991;51.760;19.528;2023-10-08T05:15:07;5.70;;;2.50;;
80637;SDS011;69991;51.760;19.528;2023-10-08T05:17:59;7.50;;;2.80;;
80637;SDS011;69991;51.760;19.528;2023-10-08T05:20:50;7.10;;;2.50;;
80637;SDS011;69991;51.760;19.528;2023-10-08T05:23:33;5.70;;;2.30;;
80637;SDS011;69991;51.760;19.528;2023-10-08T05:26:29;6.40;;;2.60;;
80637;SDS011;69991;51.760;19.528;2023-10-08T05:29:24;6.80;;;2.30;;
80637;SDS011;69991;51.760;19.528;2023-10-08T05:32:27;10.60;;;2.30;;
80637;SDS011;69991;51.760;19.528;2023-10-08T05:35:21;8.70;;;2.40;;
80637;SDS011;69991;51.760;19.528;2023-10-08T05:38:19;4.60;;;1.80;;
80637;SDS011;69991;51.760;19.528;2023-10-08T05:41:05;9.30;;;3.90;;
80637;SDS011;69991;51.760;19.528;2023-10-08T05:44:09;5.40;;;1.60;;
80637;SDS011;69991;51.760;19.528;2023-10-08T05:47:00;5.70;;;1.80;;
80637;SDS011;69991;51.760;19.528;2023-10-08T05:50:25;6.70;;;1.60;;
80637;SDS011;69991;51.760;19.528;2023-10-08T05:53:01;5.00;;;1.90;;
80637;SDS011;69991;51.760;19.528;2023-10-08T05:56:15;4.30;;;1.50;;
80637;SDS011;69991;51.760;19.528;2023-10-08T05:59:05;3.40;;;1.50;;
80637;SDS011;69991;51.760;19.528;2023-10-08T06:01:59;3.60;;;1.30;;
80637;SDS011;69991;51.760;19.528;2023-10-08T06:04:43;5.60;;;1.50;;
80637;SDS011;69991;51.760;19.528;2023-10-08T06:07:56;5.50;;;1.50;;
80637;SDS011;69991;51.760;19.528;2023-10-08T06:10:46;3.00;;;1.20;;
80637;SDS011;69991;51.760;19.528;2023-10-08T06:13:39;6.10;;;1.50;;
80637;SDS011;69991;51.760;19.528;2023-10-08T06:16:32;3.00;;;1.10;;
80637;SDS011;69991;51.760;19.528;2023-10-08T06:19:19;5.90;;;1.10;;
80637;SDS011;69991;51.760;19.528;2023-10-08T06:21:57;3.40;;;1.10;;
80637;SDS011;69991;51.760;19.528;2023-10-08T06:24:32;4.10;;;1.20;;
80637;SDS011;69991;51.760;19.528;2023-10-08T06:27:20;4.30;;;1.00;;
80637;SDS011;69991;51.760;19.528;2023-10-08T06:30:17;4.60;;;0.90;;
80637;SDS011;69991;51.760;19.528;2023-10-08T06:33:17;2.30;;;0.90;;
80637;SDS011;69991;51.760;19.528;2023-10-08T06:36:19;2.90;;;0.90;;
80637;SDS011;69991;51.760;19.528;2023-10-08T06:39:16;3.60;;;1.10;;
80637;SDS011;69991;51.760;19.528;2023-10-08T06:42:21;4.70;;;1.40;;
80637;SDS011;69991;51.760;19.528;2023-10-08T06:45:18;2.80;;;1.00;;
80637;SDS011;69991;51.760;19.528;2023-10-08T06:47:54;2.90;;;0.90;;
80637;SDS011;69991;51.760;19.528;2023-10-08T06:50:47;9.60;;;4.30;;
80637;SDS011;69991;51.760;19.528;2023-10-08T06:53:24;4.60;;;0.80;;
80637;SDS011;69991;51.760;19.528;2023-10-08T06:56:13;3.80;;;0.90;;
80637;SDS011;69991;51.760;19.528;2023-10-08T06:58:49;2.50;;;0.70;;
80637;SDS011;69991;51.760;19.528;2023-10-08T07:01:28;2.30;;;0.60;;
80637;SDS011;69991;51.760;19.528;2023-10-08T07:04:21;3.90;;;0.90;;
80637;SDS011;69991;51.760;19.528;2023-10-08T07:06:58;3.30;;;0.80;;
80637;SDS011;69991;51.760;19.528;2023-10-08T07:09:35;2.90;;;0.60;;
80637;SDS011;69991;51.760;19.528;2023-10-08T07:12:19;3.40;;;0.80;;
80637;SDS011;69991;51.760;19.528;2023-10-08T07:14:55;2.50;;;0.60;;
80637;SDS011;69991;51.760;19.528;2023-10-08T07:17:34;4.20;;;0.70;;
80637;SDS011;69991;51.760;19.528;2023-10-08T07:20:22;2.50;;;0.70;;
80637;SDS011;69991;51.760;19.528;2023-10-08T07:22:58;3.00;;;0.80;;
80637;SDS011;69991;51.760;19.528;2023-10-08T07:25:59;1.70;;;0.50;;
80637;SDS011;69991;51.760;19.528;2023-10-08T07:28:53;4.00;;;0.70;;
80637;SDS011;69991;51.760;19.528;2023-10-08T07:31:41;1.40;;;0.40;;
80637;SDS011;69991;51.760;19.528;2023-10-08T07:34:17;2.60;;;0.50;;
80637;SDS011;69991;51.760;19.528;2023-10-08T07:37:05;3.10;;;0.60;;
80637;SDS011;69991;51.760;19.528;2023-10-08T07:39:40;2.90;;;0.70;;
80637;SDS011;69991;51.760;19.528;2023-10-08T07:42:29;3.20;;;0.70;;
80637;SDS011;69991;51.760;19.528;2023-10-08T07:45:06;1.80;;;0.50;;
80637;SDS011;69991;51.760;19.528;2023-10-08T07:47:58;1.80;;;0.70;;
80637;SDS011;69991;51.760;19.528;2023-10-08T07:50:41;2.40;;;0.60;;
80637;SDS011;69991;51.760;19.528;2023-10-08T07:53:32;2.70;;;0.70;;
80637;SDS011;69991;51.760;19.528;2023-10-08T07:56:16;2.30;;;0.60;;
80637;SDS011;69991;51.760;19.528;2023-10-08T07:59:08;3.50;;;1.20;;
80637;SDS011;69991;51.760;19.528;2023-10-08T08:01:44;3.20;;;0.70;;
80637;SDS011;69991;51.760;19.528;2023-10-08T08:07:10;1.20;;;0.40;;
80637;SDS011;69991;51.760;19.528;2023-10-08T08:10:03;2.10;;;0.60;;
80637;SDS011;69991;51.760;19.528;2023-10-08T08:12:46;1.40;;;0.30;;
80637;SDS011;69991;51.760;19.528;2023-10-08T08:15:38;4.50;;;1.20;;
80637;SDS011;69991;51.760;19.528;2023-10-08T08:18:20;2.20;;;0.70;;
80637;SDS011;69991;51.760;19.528;2023-10-08T08:21:21;1.40;;;0.30;;
80637;SDS011;69991;51.760;19.528;2023-10-08T08:24:19;1.60;;;0.50;;
80637;SDS011;69991;51.760;19.528;2023-10-08T08:27:24;4.70;;;0.60;;
80637;SDS011;69991;51.760;19.528;2023-10-08T08:30:20;2.20;;;0.60;;
80637;SDS011;69991;51.760;19.528;2023-10-08T08:33:16;1.80;;;0.40;;
80637;SDS011;69991;51.760;19.528;2023-10-08T08:36:12;2.50;;;0.50;;
80637;SDS011;69991;51.760;19.528;2023-10-08T08:39:08;2.10;;;0.60;;
80637;SDS011;69991;51.760;19.528;2023-10-08T08:42:21;2.50;;;0.70;;
80637;SDS011;69991;51.760;19.528;2023-10-08T08:45:21;3.30;;;0.60;;
80637;SDS011;69991;51.760;19.528;2023-10-08T08:48:21;3.00;;;0.60;;
80637;SDS011;69991;51.760;19.528;2023-10-08T08:51:17;3.50;;;0.60;;
80637;SDS011;69991;51.760;19.528;2023-10-08T08:53:52;2.20;;;0.60;;
80637;SDS011;69991;51.760;19.528;2023-10-08T08:56:41;1.50;;;0.40;;
80637;SDS011;69991;51.760;19.528;2023-10-08T08:59:18;3.00;;;0.70;;
80637;SDS011;69991;51.760;19.528;2023-10-08T09:02:07;2.00;;;0.40;;
80637;SDS011;69991;51.760;19.528;2023-10-08T09:04:43;2.40;;;0.50;;
80637;SDS011;69991;51.760;19.528;2023-10-08T09:07:32;1.80;;;0.50;;
80637;SDS011;69991;51.760;19.528;2023-10-08T09:10:08;1.80;;;0.50;;
80637;SDS011;69991;51.760;19.528;2023-10-08T09:12:59;1.30;;;0.30;;
80637;SDS011;69991;51.760;19.528;2023-10-08T09:15:41;2.20;;;0.60;;
80637;SDS011;69991;51.760;19.528;2023-10-08T09:18:23;1.70;;;0.30;;
80637;SDS011;69991;51.760;19.528;2023-10-08T09:21:10;1.40;;;0.40;;
80637;SDS011;69991;51.760;19.528;2023-10-08T09:23:57;2.00;;;0.50;;
80637;SDS011;69991;51.760;19.528;2023-10-08T09:26:46;2.00;;;0.60;;
80637;SDS011;69991;51.760;19.528;2023-10-08T09:29:42;1.60;;;0.40;;
80637;SDS011;69991;51.760;19.528;2023-10-08T09:32:17;1.80;;;0.50;;
80637;SDS011;69991;51.760;19.528;2023-10-08T09:35:06;1.70;;;0.40;;
80637;SDS011;69991;51.760;19.528;2023-10-08T09:37:43;3.20;;;0.80;;
80637;SDS011;69991;51.760;19.528;2023-10-08T09:40:32;2.00;;;0.50;;
80637;SDS011;69991;51.760;19.528;2023-10-08T09:43:15;1.40;;;0.40;;
80637;SDS011;69991;51.760;19.528;2023-10-08T09:46:08;2.50;;;0.60;;
80637;SDS011;69991;51.760;19.528;2023-10-08T09:48:55;3.10;;;0.80;;
80637;SDS011;69991;51.760;19.528;2023-10-08T09:51:43;2.50;;;0.60;;
80637;SDS011;69991;51.760;19.528;2023-10-08T09:54:30;1.90;;;0.60;;
80637;SDS011;69991;51.760;19.528;2023-10-08T09:57:15;2.70;;;0.60;;
80637;SDS011;69991;51.760;19.528;2023-10-08T10:00:03;1.50;;;0.30;;
80637;SDS011;69991;51.760;19.528;2023-10-08T10:03:05;5.50;;;2.20;;
80637;SDS011;69991;51.760;19.528;2023-10-08T10:05:43;1.20;;;0.40;;
80637;SDS011;69991;51.760;19.528;2023-10-08T10:08:33;1.70;;;0.50;;
80637;SDS011;69991;51.760;19.528;2023-10-08T10:11:11;1.20;;;0.50;;
80637;SDS011;69991;51.760;19.528;2023-10-08T10:14:01;1.60;;;0.50;;
80637;SDS011;69991;51.760;19.528;2023-10-08T10:16:38;2.10;;;0.40;;
80637;SDS011;69991;51.760;19.528;2023-10-08T10:19:32;3.80;;;0.60;;
80637;SDS011;69991;51.760;19.528;2023-10-08T10:22:10;3.30;;;0.90;;
80637;SDS011;69991;51.760;19.528;2023-10-08T10:24:58;3.70;;;0.60;;
80637;SDS011;69991;51.760;19.528;2023-10-08T10:30:50;2.70;;;0.60;;
80637;SDS011;69991;51.760;19.528;2023-10-08T10:33:46;1.40;;;0.40;;
80637;SDS011;69991;51.760;19.528;2023-10-08T10:36:44;2.30;;;0.50;;
80637;SDS011;69991;51.760;19.528;2023-10-08T10:39:24;4.90;;;1.00;;
80637;SDS011;69991;51.760;19.528;2023-10-08T10:42:16;3.00;;;0.70;;
80637;SDS011;69991;51.760;19.528;2023-10-08T10:45:15;2.20;;;0.70;;
80637;SDS011;69991;51.760;19.528;2023-10-08T10:48:18;1.80;;;0.50;;
80637;SDS011;69991;51.760;19.528;2023-10-08T10:51:02;3.60;;;0.60;;
80637;SDS011;69991;51.760;19.528;2023-10-08T10:53:46;2.40;;;0.60;;
80637;SDS011;69991;51.760;19.528;2023-10-08T10:56:50;2.90;;;0.60;;
80637;SDS011;69991;51.760;19.528;2023-10-08T10:59:40;2.90;;;0.70;;
80637;SDS011;69991;51.760;19.528;2023-10-08T11:02:35;1.80;;;0.50;;
80637;SDS011;69991;51.760;19.528;2023-10-08T11:05:18;2.60;;;0.60;;
80637;SDS011;69991;51.760;19.528;2023-10-08T11:08:09;1.80;;;0.50;;
80637;SDS011;69991;51.760;19.528;2023-10-08T11:10:53;2.10;;;0.50;;
80637;SDS011;69991;51.760;19.528;2023-10-08T11:13:40;2.80;;;0.60;;
80637;SDS011;69991;51.760;19.528;2023-10-08T11:16:22;1.90;;;0.50;;
80637;SDS011;69991;51.760;19.528;2023-10-08T11:19:19;2.20;;;0.50;;
80637;SDS011;69991;51.760;19.528;2023-10-08T11:22:19;3.40;;;0.60;;
80637;SDS011;69991;51.760;19.528;2023-10-08T11:25:22;3.60;;;0.60;;
80637;SDS011;69991;51.760;19.528;2023-10-08T11:28:21;3.00;;;0.90;;
80637;SDS011;69991;51.760;19.528;2023-10-08T11:31:17;3.00;;;0.80;;
80637;SDS011;69991;51.760;19.528;2023-10-08T11:34:13;5.80;;;1.70;;
80637;SDS011;69991;51.760;19.528;2023-10-08T11:37:12;2.20;;;0.50;;
80637;SDS011;69991;51.760;19.528;2023-10-08T11:39:57;2.00;;;0.50;;
80637;SDS011;69991;51.760;19.528;2023-10-08T11:42:58;2.50;;;0.60;;
80637;SDS011;69991;51.760;19.528;2023-10-08T11:45:55;2.10;;;1.00;;
80637;SDS011;69991;51.760;19.528;2023-10-08T11:48:52;1.80;;;0.40;;
80637;SDS011;69991;51.760;19.528;2023-10-08T11:51:28;2.80;;;0.60;;
80637;SDS011;69991;51.760;19.528;2023-10-08T11:54:16;1.90;;;0.50;;
80637;SDS011;69991;51.760;19.528;2023-10-08T11:56:51;2.20;;;0.40;;
80637;SDS011;69991;51.760;19.528;2023-10-08T11:59:40;2.30;;;0.80;;
80637;SDS011;69991;51.760;19.528;2023-10-08T12:02:17;3.10;;;0.90;;
80637;SDS011;69991;51.760;19.528;2023-10-08T12:05:06;2.80;;;0.60;;
80637;SDS011;69991;51.760;19.528;2023-10-08T12:07:50;3.10;;;0.60;;
80637;SDS011;69991;51.760;19.528;2023-10-08T12:10:33;3.30;;;0.80;;
80637;SDS011;69991;51.760;19.528;2023-10-08T12:13:17;3.20;;;0.60;;
80637;SDS011;69991;51.760;19.528;2023-10-08T12:16:04;1.10;;;0.30;;
80637;SDS011;69991;51.760;19.528;2023-10-08T12:18:56;2.30;;;0.70;;
80637;SDS011;69991;51.760;19.528;2023-10-08T12:21:58;1.60;;;0.50;;
80637;SDS011;69991;51.760;19.528;2023-10-08T12:24:38;2.00;;;0.70;;
80637;SDS011;69991;51.760;19.528;2023-10-08T12:27:28;2.20;;;0.60;;
80637;SDS011;69991;51.760;19.528;2023-10-08T12:30:05;3.40;;;0.60;;
80637;SDS011;69991;51.760;19.528;2023-10-08T12:32:54;2.80;;;0.60;;
80637;SDS011;69991;51.760;19.528;2023-10-08T12:35:32;2.20;;;0.50;;
80637;SDS011;69991;51.760;19.528;2023-10-08T12:38:28;1.90;;;0.50;;
80637;SDS011;69991;51.760;19.528;2023-10-08T12:41:24;1.70;;;0.60;;
80637;SDS011;69991;51.760;19.528;2023-10-08T12:44:21;2.50;;;0.70;;
80637;SDS011;69991;51.760;19.528;2023-10-08T12:46:59;2.10;;;0.60;;
80637;SDS011;69991;51.760;19.528;2023-10-08T12:49:47;2.90;;;0.50;;
80637;SDS011;69991;51.760;19.528;2023-10-08T12:52:23;1.70;;;0.50;;
80637;SDS011;69991;51.760;19.528;2023-10-08T12:55:11;2.10;;;0.60;;
80637;SDS011;69991;51.760;19.528;2023-10-08T12:57:46;1.90;;;0.50;;
80637;SDS011;69991;51.760;19.528;2023-10-08T13:00:47;3.40;;;0.70;;
80637;SDS011;69991;51.760;19.528;2023-10-08T13:03:25;3.30;;;0.60;;
80637;SDS011;69991;51.760;19.528;2023-10-08T13:06:19;1.90;;;0.50;;
80637;SDS011;69991;51.760;19.528;2023-10-08T13:09:06;2.00;;;0.50;;
80637;SDS011;69991;51.760;19.528;2023-10-08T13:11:48;2.50;;;0.70;;
80637;SDS011;69991;51.760;19.528;2023-10-08T13:14:33;3.10;;;0.70;;
80637;SDS011;69991;51.760;19.528;2023-10-08T13:17:22;3.20;;;0.70;;
80637;SDS011;69991;51.760;19.528;2023-10-08T13:19:58;3.40;;;0.80;;
80637;SDS011;69991;51.760;19.528;2023-10-08T13:22:46;3.20;;;0.70;;
80637;SDS011;69991;51.760;19.528;2023-10-08T13:25:22;1.90;;;0.50;;
80637;SDS011;69991;51.760;19.528;2023-10-08T13:28:12;1.60;;;0.60;;
80637;SDS011;69991;51.760;19.528;2023-10-08T13:30:51;3.50;;;0.80;;
80637;SDS011;69991;51.760;19.528;2023-10-08T13:33:41;2.50;;;0.60;;
80637;SDS011;69991;51.760;19.528;2023-10-08T13:36:24;2.20;;;0.70;;
80637;SDS011;69991;51.760;19.528;2023-10-08T13:39:26;1.90;;;0.60;;
80637;SDS011;69991;51.760;19.528;2023-10-08T13:42:23;2.30;;;0.50;;
80637;SDS011;69991;51.760;19.528;2023-10-08T13:45:20;2.20;;;0.60;;
80637;SDS011;69991;51.760;19.528;2023-10-08T13:48:17;2.40;;;0.70;;
80637;SDS011;69991;51.760;19.528;2023-10-08T13:51:14;1.70;;;0.40;;
80637;SDS011;69991;51.760;19.528;2023-10-08T13:54:13;1.70;;;0.40;;
80637;SDS011;69991;51.760;19.528;2023-10-08T13:57:09;2.70;;;0.70;;
80637;SDS011;69991;51.760;19.528;2023-10-08T14:00:07;2.10;;;0.70;;
80637;SDS011;69991;51.760;19.528;2023-10-08T14:03:04;2.70;;;0.60;;
80637;SDS011;69991;51.760;19.528;2023-10-08T14:05:50;2.20;;;0.50;;
80637;SDS011;69991;51.760;19.528;2023-10-08T14:08:44;2.90;;;0.70;;
80637;SDS011;69991;51.760;19.528;2023-10-08T14:11:28;2.60;;;0.80;;
80637;SDS011;69991;51.760;19.528;2023-10-08T14:14:09;3.10;;;0.70;;
80637;SDS011;69991;51.760;19.528;2023-10-08T14:16:53;3.20;;;0.70;;
80637;SDS011;69991;51.760;19.528;2023-10-08T14:19:35;1.90;;;0.60;;
80637;SDS011;69991;51.760;19.528;2023-10-08T14:22:27;3.00;;;0.70;;
80637;SDS011;69991;51.760;19.528;2023-10-08T14:25:10;4.90;;;0.80;;
80637;SDS011;69991;51.760;19.528;2023-10-08T14:27:47;2.50;;;0.60;;
80637;SDS011;69991;51.760;19.528;2023-10-08T14:30:45;3.50;;;0.70;;
80637;SDS011;69991;51.760;19.528;2023-10-08T14:33:21;3.60;;;0.80;;
80637;SDS011;69991;51.760;19.528;2023-10-08T14:36:13;2.50;;;0.80;;
80637;SDS011;69991;51.760;19.528;2023-10-08T14:39:07;2.40;;;0.40;;
80637;SDS011;69991;51.760;19.528;2023-10-08T14:42:21;2.30;;;0.50;;
80637;SDS011;69991;51.760;19.528;2023-10-08T14:45:38;1.10;;;0.40;;
80637;SDS011;69991;51.760;19.528;2023-10-08T14:48:36;2.90;;;0.60;;
80637;SDS011;69991;51.760;19.528;2023-10-08T14:51:32;2.10;;;0.70;;
80637;SDS011;69991;51.760;19.528;2023-10-08T14:54:28;3.60;;;0.70;;
80637;SDS011;69991;51.760;19.528;2023-10-08T14:57:24;2.90;;;0.90;;
80637;SDS011;69991;51.760;19.528;2023-10-08T15:00:28;2.20;;;0.60;;
80637;SDS011;69991;51.760;19.528;2023-10-08T15:03:24;2.60;;;0.70;;
80637;SDS011;69991;51.760;19.528;2023-10-08T15:06:20;4.60;;;0.90;;
80637;SDS011;69991;51.760;19.528;2023-10-08T15:09:16;2.80;;;0.70;;
80637;SDS011;69991;51.760;19.528;2023-10-08T15:12:12;2.90;;;0.50;;
80637;SDS011;69991;51.760;19.528;2023-10-08T15:15:10;2.70;;;0.80;;
80637;SDS011;69991;51.760;19.528;2023-10-08T15:18:06;3.30;;;0.70;;
80637;SDS011;69991;51.760;19.528;2023-10-08T15:20:43;2.00;;;0.60;;
80637;SDS011;69991;51.760;19.528;2023-10-08T15:23:31;3.20;;;0.70;;
80637;SDS011;69991;51.760;19.528;2023-10-08T15:26:07;1.70;;;0.60;;
80637;SDS011;69991;51.760;19.528;2023-10-08T15:29:07;2.50;;;0.70;;
80637;SDS011;69991;51.760;19.528;2023-10-08T15:31:43;3.20;;;0.80;;
80637;SDS011;69991;51.760;19.528;2023-10-08T15:34:33;3.00;;;0.80;;
80637;SDS011;69991;51.760;19.528;2023-10-08T15:37:13;2.40;;;0.80;;
80637;SDS011;69991;51.760;19.528;2023-10-08T15:40:01;2.90;;;0.60;;
80637;SDS011;69991;51.760;19.528;2023-10-08T15:42:41;2.90;;;1.00;;
80637;SDS011;69991;51.760;19.528;2023-10-08T15:45:30;2.50;;;0.70;;
80637;SDS011;69991;51.760;19.528;2023-10-08T15:48:06;2.30;;;0.90;;
80637;SDS011;69991;51.760;19.528;2023-10-08T15:50:56;3.90;;;0.80;;
80637;SDS011;69991;51.760;19.528;2023-10-08T15:53:32;2.60;;;0.80;;
80637;SDS011;69991;51.760;19.528;2023-10-08T15:56:21;3.10;;;0.90;;
80637;SDS011;69991;51.760;19.528;2023-10-08T15:58:57;3.30;;;0.90;;
80637;SDS011;69991;51.760;19.528;2023-10-08T16:01:45;3.00;;;0.90;;
80637;SDS011;69991;51.760;19.528;2023-10-08T16:04:22;2.90;;;0.70;;
80637;SDS011;69991;51.760;19.528;2023-10-08T16:07:11;3.40;;;1.00;;
80637;SDS011;69991;51.760;19.528;2023-10-08T16:09:47;2.50;;;0.60;;
80637;SDS011;69991;51.760;19.528;2023-10-08T16:12:35;2.70;;;1.00;;
80637;SDS011;69991;51.760;19.528;2023-10-08T16:15:12;3.70;;;0.80;;
80637;SDS011;69991;51.760;19.528;2023-10-08T16:18:02;2.70;;;0.80;;
80637;SDS011;69991;51.760;19.528;2023-10-08T16:20:41;2.50;;;0.70;;
80637;SDS011;69991;51.760;19.528;2023-10-08T16:23:29;3.20;;;1.00;;
80637;SDS011;69991;51.760;19.528;2023-10-08T16:26:06;3.30;;;0.80;;
80637;SDS011;69991;51.760;19.528;2023-10-08T16:29:05;2.70;;;0.70;;
80637;SDS011;69991;51.760;19.528;2023-10-08T16:32:02;3.20;;;1.00;;
80637;SDS011;69991;51.760;19.528;2023-10-08T16:34:58;3.10;;;0.90;;
80637;SDS011;69991;51.760;19.528;2023-10-08T16:37:55;3.30;;;0.90;;
80637;SDS011;69991;51.760;19.528;2023-10-08T16:40:51;4.30;;;1.30;;
80637;SDS011;69991;51.760;19.528;2023-10-08T16:43:27;3.20;;;1.10;;
80637;SDS011;69991;51.760;19.528;2023-10-08T16:46:16;3.50;;;0.90;;
80637;SDS011;69991;51.760;19.528;2023-10-08T16:48:52;4.40;;;1.10;;
80637;SDS011;69991;51.760;19.528;2023-10-08T16:51:40;3.60;;;1.20;;
80637;SDS011;69991;51.760;19.528;2023-10-08T16:54:16;3.60;;;1.10;;